createdAt,value
2016-11-10T00:00:49.835Z,0
2016-11-10T00:02:02.765Z,0
2016-11-10T00:03:15.251Z,0
2016-11-10T00:04:28.910Z,0
2016-11-10T00:05:41.892Z,0
2016-11-10T00:06:54.811Z,0
2016-11-10T00:08:07.778Z,0
2016-11-10T00:09:20.325Z,0
2016-11-10T00:10:33.214Z,0
2016-11-10T00:11:46.708Z,0
2016-11-10T00:12:59.697Z,0
2016-11-10T00:14:13.206Z,0
2016-11-10T00:15:25.730Z,0
2016-11-10T00:16:38.234Z,0
2016-11-10T00:17:50.744Z,0
2016-11-10T00:19:03.223Z,0
2016-11-10T00:20:16.144Z,0
2016-11-10T00:21:29.617Z,0
2016-11-10T00:22:42.140Z,0
2016-11-10T00:23:54.048Z,0
2016-11-10T00:25:07.652Z,0
2016-11-10T00:26:51.837Z,0
2016-11-10T00:28:04.276Z,0
2016-11-10T00:29:17.792Z,0
2016-11-10T00:30:30.789Z,0
2016-11-10T00:31:43.339Z,0
2016-11-10T00:32:55.736Z,0
2016-11-10T00:34:08.738Z,0
2016-11-10T00:35:21.701Z,0
2016-11-10T00:36:34.748Z,0
2016-11-10T00:37:47.259Z,0
2016-11-10T00:39:00.246Z,0
2016-11-10T00:40:12.820Z,0
2016-11-10T00:41:25.260Z,0
2016-11-10T00:42:37.817Z,0
2016-11-10T00:43:50.780Z,0
2016-11-10T00:45:04.264Z,0
2016-11-10T00:46:17.211Z,0
2016-11-10T00:47:29.672Z,0
2016-11-10T00:48:42.072Z,0
2016-11-10T00:49:55.027Z,0
2016-11-10T00:51:08.075Z,0
2016-11-10T00:52:20.536Z,0
2016-11-10T00:54:05.191Z,0
2016-11-10T00:55:18.642Z,0
2016-11-10T00:56:31.561Z,0
2016-11-10T00:57:45.024Z,0
2016-11-10T00:58:57.580Z,0
2016-11-10T01:00:10.535Z,0
2016-11-10T01:01:24.063Z,0
2016-11-10T01:02:36.560Z,0
2016-11-10T01:03:49.988Z,0
2016-11-10T01:05:01.909Z,0
2016-11-10T01:06:13.800Z,0
2016-11-10T01:07:27.287Z,0
2016-11-10T01:08:40.289Z,0
2016-11-10T01:09:53.319Z,0
2016-11-10T01:11:05.291Z,0
2016-11-10T01:12:17.258Z,0
2016-11-10T01:13:30.186Z,0
2016-11-10T01:14:43.158Z,0
2016-11-10T01:15:55.105Z,0
2016-11-10T01:17:08.114Z,0
2016-11-10T01:18:21.116Z,0
2016-11-10T01:19:33.058Z,0
2016-11-10T01:20:45.551Z,0
2016-11-10T01:21:59.042Z,0
2016-11-10T01:23:12.576Z,0
2016-11-10T01:24:25.484Z,0
2016-11-10T01:25:37.423Z,0
2016-11-10T01:26:50.923Z,0
2016-11-10T01:28:04.478Z,0
2016-11-10T01:29:16.924Z,0
2016-11-10T01:30:30.419Z,0
2016-11-10T01:31:42.423Z,0
2016-11-10T01:32:55.915Z,0
2016-11-10T01:34:08.797Z,0
2016-11-10T01:35:21.210Z,0
2016-11-10T01:36:34.737Z,0
2016-11-10T01:37:47.715Z,0
2016-11-10T01:39:00.133Z,0
2016-11-10T01:40:12.038Z,0
2016-11-10T01:41:25.577Z,0
2016-11-10T01:42:38.676Z,0
2016-11-10T01:43:51.616Z,0
2016-11-10T01:45:05.126Z,0
2016-11-10T01:46:18.087Z,0
2016-11-10T01:47:31.168Z,0
2016-11-10T01:48:44.144Z,0
2016-11-10T01:49:56.577Z,0
2016-11-10T01:51:08.973Z,0
2016-11-10T01:52:21.389Z,0
2016-11-10T01:53:35.008Z,0
2016-11-10T01:54:47.451Z,0
2016-11-10T01:56:00.965Z,0
2016-11-10T01:57:12.850Z,0
2016-11-10T01:58:24.740Z,0
2016-11-10T01:59:37.729Z,0
2016-11-10T02:00:50.756Z,0
2016-11-10T02:02:02.100Z,0
2016-11-10T02:03:14.591Z,0
2016-11-10T02:04:27.153Z,0
2016-11-10T02:05:39.007Z,0
2016-11-10T02:06:52.135Z,0
2016-11-10T02:08:05.168Z,0
2016-11-10T02:09:17.682Z,0
2016-11-10T02:10:30.227Z,0
2016-11-10T02:11:43.694Z,0
2016-11-10T02:12:56.067Z,0
2016-11-10T02:14:07.447Z,0
2016-11-10T02:15:20.058Z,0
2016-11-10T02:16:33.572Z,0
2016-11-10T02:17:46.576Z,0
2016-11-10T02:19:00.011Z,0
2016-11-10T02:20:12.980Z,0
2016-11-10T02:21:25.984Z,0
2016-11-10T02:22:38.931Z,0
2016-11-10T02:23:53.347Z,0
2016-11-10T02:25:07.547Z,0
2016-11-10T02:26:19.454Z,0
2016-11-10T02:27:32.627Z,0
2016-11-10T02:28:46.075Z,0
2016-11-10T02:31:43.091Z,0
2016-11-10T02:32:56.088Z,0
2016-11-10T02:34:08.670Z,0
2016-11-10T02:35:22.378Z,0
2016-11-10T02:36:35.488Z,0
2016-11-10T02:37:48.112Z,0
2016-11-10T02:39:00.666Z,0
2016-11-10T02:40:14.358Z,0
2016-11-10T02:41:27.478Z,0
2016-11-10T02:42:40.584Z,0
2016-11-10T02:43:54.460Z,0
2016-11-10T02:45:07.906Z,0
2016-11-10T02:46:20.519Z,0
2016-11-10T02:47:33.480Z,0
2016-11-10T02:48:46.101Z,0
2016-11-10T02:49:58.568Z,0
2016-11-10T02:51:12.035Z,0
2016-11-10T02:52:24.978Z,0
2016-11-10T02:53:38.469Z,0
2016-11-10T02:54:51.918Z,0
2016-11-10T02:56:04.395Z,0
2016-11-10T02:57:16.825Z,0
2016-11-10T02:58:29.884Z,0
2016-11-10T02:59:42.800Z,0
2016-11-10T03:00:55.736Z,0
2016-11-10T03:02:08.720Z,0
2016-11-10T03:03:22.180Z,0
2016-11-10T03:04:35.691Z,0
2016-11-10T03:05:48.134Z,0
2016-11-10T03:07:00.567Z,0
2016-11-10T03:08:13.050Z,0
2016-11-10T03:09:26.699Z,0
2016-11-10T03:10:39.587Z,0
2016-11-10T03:11:53.212Z,0
2016-11-10T03:13:05.116Z,0
2016-11-10T03:14:18.108Z,0
2016-11-10T03:15:31.040Z,0
2016-11-10T03:16:44.062Z,0
2016-11-10T03:17:56.998Z,0
2016-11-10T03:19:10.471Z,0
2016-11-10T03:20:24.097Z,0
2016-11-10T03:21:37.765Z,0
2016-11-10T03:22:50.667Z,0
2016-11-10T03:24:03.049Z,0
2016-11-10T03:25:15.540Z,0
2016-11-10T03:26:29.029Z,0
2016-11-10T03:27:41.466Z,0
2016-11-10T03:28:55.052Z,0
2016-11-10T03:30:08.035Z,0
2016-11-10T03:31:21.128Z,0
2016-11-10T03:32:33.582Z,0
2016-11-10T03:33:46.554Z,0
2016-11-10T03:34:59.539Z,0
2016-11-10T03:36:12.648Z,0
2016-11-10T03:37:25.594Z,0
2016-11-10T03:38:38.573Z,0
2016-11-10T03:39:51.518Z,0
2016-11-10T03:41:03.945Z,0
2016-11-10T03:42:17.033Z,0
2016-11-10T03:43:29.942Z,0
2016-11-10T03:44:42.337Z,0
2016-11-10T03:45:55.299Z,0
2016-11-10T03:47:07.753Z,0
2016-11-10T03:48:20.708Z,0
2016-11-10T03:49:34.181Z,0
2016-11-10T03:50:47.666Z,0
2016-11-10T03:52:00.606Z,0
2016-11-10T03:53:13.687Z,0
2016-11-10T03:54:26.130Z,0
2016-11-10T03:56:10.244Z,0
2016-11-10T03:57:22.697Z,0
2016-11-10T03:58:35.800Z,0
2016-11-10T03:59:48.854Z,0
2016-11-10T04:01:01.827Z,0
2016-11-10T04:02:15.286Z,0
2016-11-10T04:03:28.763Z,0
2016-11-10T04:04:41.781Z,0
2016-11-10T04:05:54.238Z,0
2016-11-10T04:07:07.267Z,0
2016-11-10T04:08:20.764Z,0
2016-11-10T04:09:34.372Z,0
2016-11-10T04:10:46.885Z,0
2016-11-10T04:11:59.428Z,0
2016-11-10T04:13:11.884Z,0
2016-11-10T04:14:23.319Z,0
2016-11-10T04:15:36.295Z,0
2016-11-10T04:16:48.726Z,0
2016-11-10T04:18:01.200Z,0
2016-11-10T04:19:14.690Z,0
2016-11-10T04:20:27.835Z,0
2016-11-10T04:21:40.829Z,0
2016-11-10T04:22:54.252Z,0
2016-11-10T04:24:07.228Z,0
2016-11-10T04:25:20.725Z,0
2016-11-10T04:26:33.128Z,0
2016-11-10T04:27:46.099Z,0
2016-11-10T04:28:58.599Z,0
2016-11-10T04:30:12.110Z,0
2016-11-10T04:31:24.639Z,0
2016-11-10T04:32:37.035Z,0
2016-11-10T04:33:49.980Z,0
2016-11-10T04:35:01.889Z,0
2016-11-10T04:36:15.428Z,0
2016-11-10T04:37:28.875Z,0
2016-11-10T04:38:41.412Z,0
2016-11-10T04:39:54.897Z,0
2016-11-10T04:41:07.932Z,0
2016-11-10T04:42:21.587Z,0
2016-11-10T04:43:34.635Z,0
2016-11-10T04:44:47.055Z,0
2016-11-10T04:46:00.065Z,0
2016-11-10T04:47:12.873Z,0
2016-11-10T04:48:25.926Z,0
2016-11-10T04:49:38.954Z,0
2016-11-10T04:50:52.048Z,0
2016-11-10T04:52:05.203Z,0
2016-11-10T04:53:17.967Z,0
2016-11-10T04:54:30.981Z,0
2016-11-10T04:55:43.555Z,0
2016-11-10T04:56:55.453Z,0
2016-11-10T04:58:08.433Z,0
2016-11-10T04:59:20.823Z,0
2016-11-10T05:00:32.186Z,0
2016-11-10T05:01:44.081Z,0
2016-11-10T05:02:56.614Z,0
2016-11-10T05:04:08.768Z,0
2016-11-10T05:05:20.634Z,0
2016-11-10T05:06:32.719Z,0
2016-11-10T05:07:45.774Z,0
2016-11-10T05:08:58.790Z,0
2016-11-10T05:10:10.745Z,0
2016-11-10T05:11:22.457Z,0
2016-11-10T05:12:34.914Z,0
2016-11-10T05:13:47.288Z,0
2016-11-10T05:14:58.880Z,0
2016-11-10T05:16:10.799Z,0
2016-11-10T05:17:22.681Z,0
2016-11-10T05:18:34.820Z,0
2016-11-10T05:19:46.207Z,0
2016-11-10T05:20:57.246Z,0
2016-11-10T05:22:08.080Z,0
2016-11-10T05:23:20.500Z,0
2016-11-10T05:24:32.943Z,0
2016-11-10T05:25:44.309Z,0
2016-11-10T05:26:56.304Z,0
2016-11-10T05:28:08.366Z,0
2016-11-10T05:29:21.286Z,0
2016-11-10T05:30:33.247Z,0
2016-11-10T05:31:45.684Z,0
2016-11-10T05:32:57.588Z,0
2016-11-10T05:34:11.673Z,0
2016-11-10T05:35:25.424Z,0
2016-11-10T05:36:36.835Z,0
2016-11-10T05:37:49.564Z,0
2016-11-10T05:39:02.042Z,0
2016-11-10T05:40:14.514Z,0
2016-11-10T05:41:26.995Z,0
2016-11-10T05:42:39.533Z,0
2016-11-10T05:43:52.304Z,0
2016-11-10T05:45:04.257Z,0
2016-11-10T05:46:15.109Z,0
2016-11-10T05:47:26.658Z,0
2016-11-10T05:48:39.210Z,0
2016-11-10T05:49:51.842Z,0
2016-11-10T05:51:03.970Z,0
2016-11-10T05:52:15.484Z,0
2016-11-10T05:53:26.944Z,0
2016-11-10T05:54:38.887Z,0
2016-11-10T05:55:51.823Z,0
2016-11-10T05:57:03.288Z,0
2016-11-10T05:58:15.843Z,0
2016-11-10T05:59:28.308Z,0
2016-11-10T06:00:41.274Z,0
2016-11-10T06:01:54.340Z,0
2016-11-10T06:03:05.233Z,0
2016-11-10T06:04:18.277Z,0
2016-11-10T06:05:30.158Z,0
2016-11-10T06:06:42.069Z,0
2016-11-10T06:07:54.559Z,0
2016-11-10T06:09:07.144Z,0
2016-11-10T06:10:18.632Z,0
2016-11-10T06:11:31.823Z,0
2016-11-10T06:12:43.705Z,0
2016-11-10T06:13:56.172Z,0
2016-11-10T06:15:08.765Z,0
2016-11-10T06:16:52.326Z,0
2016-11-10T06:18:04.355Z,0
2016-11-10T06:19:15.734Z,0
2016-11-10T06:20:28.895Z,0
2016-11-10T06:21:40.323Z,0
2016-11-10T06:22:53.404Z,0
2016-11-10T06:24:06.547Z,0
2016-11-10T06:25:20.372Z,0
2016-11-10T06:26:33.390Z,0
2016-11-10T06:27:46.396Z,0
2016-11-10T06:29:00.130Z,0
2016-11-10T06:30:13.600Z,0
2016-11-10T06:31:26.952Z,0
2016-11-10T06:32:40.468Z,0
2016-11-10T06:33:54.153Z,0
2016-11-10T06:35:06.816Z,0
2016-11-10T06:36:18.940Z,0
2016-11-10T06:37:31.290Z,0
2016-11-10T06:38:44.383Z,0
2016-11-10T06:39:57.851Z,0
2016-11-10T06:41:10.815Z,0
2016-11-10T06:42:24.543Z,0
2016-11-10T06:43:38.121Z,0
2016-11-10T06:44:51.688Z,0
2016-11-10T06:46:04.821Z,0
2016-11-10T06:47:17.292Z,0
2016-11-10T06:48:29.722Z,0
2016-11-10T06:49:42.271Z,0
2016-11-10T06:50:54.745Z,0
2016-11-10T06:52:38.972Z,0
2016-11-10T06:53:51.956Z,0
2016-11-10T06:55:05.040Z,0
2016-11-10T06:56:18.321Z,0
2016-11-10T06:57:31.948Z,0
2016-11-10T06:58:45.084Z,0
2016-11-10T06:59:57.701Z,0
2016-11-10T07:01:10.723Z,0
2016-11-10T07:02:22.087Z,0
2016-11-10T07:03:35.191Z,0
2016-11-10T07:04:48.155Z,0
2016-11-10T07:06:00.116Z,0
2016-11-10T07:07:12.586Z,0
2016-11-10T07:08:24.487Z,0
2016-11-10T07:09:38.271Z,0
2016-11-10T07:10:51.012Z,0
2016-11-10T07:12:03.732Z,0
2016-11-10T07:13:16.705Z,0
2016-11-10T07:14:29.106Z,0
2016-11-10T07:15:42.677Z,0
2016-11-10T07:16:55.556Z,0
2016-11-10T07:18:07.950Z,0
2016-11-10T07:19:20.399Z,0
2016-11-10T07:20:32.424Z,0
2016-11-10T07:21:44.297Z,0
2016-11-10T07:22:57.276Z,0
2016-11-10T07:24:10.813Z,0
2016-11-10T07:25:23.820Z,0
2016-11-10T07:26:36.833Z,0
2016-11-10T07:27:49.206Z,0
2016-11-10T07:29:01.664Z,0
2016-11-10T07:30:14.031Z,0
2016-11-10T07:31:27.096Z,0
2016-11-10T07:32:40.605Z,0
2016-11-10T07:33:53.548Z,0
2016-11-10T07:35:05.981Z,0
2016-11-10T07:36:50.181Z,0
2016-11-10T07:38:03.202Z,0
2016-11-10T07:39:15.690Z,0
2016-11-10T07:40:28.639Z,0
2016-11-10T07:41:41.540Z,0
2016-11-10T07:42:53.891Z,0
2016-11-10T07:44:07.351Z,0
2016-11-10T07:45:20.298Z,0
2016-11-10T07:46:33.315Z,0
2016-11-10T07:47:45.767Z,0
2016-11-10T07:48:57.737Z,0
2016-11-10T07:50:11.201Z,0
2016-11-10T07:51:54.810Z,4
2016-11-10T07:53:08.454Z,0
2016-11-10T07:54:21.424Z,4
2016-11-10T07:55:34.924Z,4
2016-11-10T07:56:47.936Z,8
2016-11-10T07:58:00.923Z,8
2016-11-10T07:59:13.847Z,16
2016-11-10T08:00:26.893Z,20
2016-11-10T08:01:40.436Z,24
2016-11-10T08:02:52.399Z,36
2016-11-10T08:04:05.955Z,48
2016-11-10T08:05:17.813Z,60
2016-11-10T08:06:30.803Z,76
2016-11-10T08:07:42.683Z,96
2016-11-10T08:08:54.627Z,124
2016-11-10T08:10:06.517Z,152
2016-11-10T08:11:18.911Z,192
2016-11-10T08:12:31.324Z,240
2016-11-10T08:13:43.226Z,292
2016-11-10T08:14:57.092Z,364
2016-11-10T08:16:09.522Z,440
2016-11-10T08:17:21.461Z,524
2016-11-10T08:18:33.968Z,628
2016-11-10T08:19:45.854Z,740
2016-11-10T08:20:58.352Z,860
2016-11-10T08:22:09.248Z,972
2016-11-10T08:23:21.719Z,1088
2016-11-10T08:24:34.778Z,1220
2016-11-10T08:25:47.873Z,1348
2016-11-10T08:26:59.845Z,1476
2016-11-10T08:28:12.232Z,1616
2016-11-10T08:29:24.202Z,1748
2016-11-10T08:30:36.679Z,1880
2016-11-10T08:31:48.156Z,2020
2016-11-10T08:33:01.146Z,2164
2016-11-10T08:34:13.625Z,2320
2016-11-10T08:35:26.625Z,2464
2016-11-10T08:36:38.653Z,2620
2016-11-10T08:37:51.111Z,2824
2016-11-10T08:39:04.127Z,3004
2016-11-10T08:40:16.072Z,3208
2016-11-10T08:41:29.592Z,3352
2016-11-10T08:42:41.554Z,3500
2016-11-10T08:43:53.508Z,3648
2016-11-10T08:45:05.399Z,3808
2016-11-10T08:46:16.311Z,3980
2016-11-10T08:47:29.568Z,4008
2016-11-10T08:48:42.137Z,4316
2016-11-10T08:49:55.225Z,4400
2016-11-10T08:51:08.233Z,4756
2016-11-10T08:52:21.200Z,4904
2016-11-10T08:53:34.178Z,5144
2016-11-10T08:54:47.249Z,5276
2016-11-10T08:56:00.796Z,5584
2016-11-10T08:57:14.415Z,5660
2016-11-10T08:58:27.009Z,5944
2016-11-10T08:59:39.998Z,6304
2016-11-10T09:00:53.708Z,6356
2016-11-10T09:02:07.235Z,6480
2016-11-10T09:03:20.207Z,6896
2016-11-10T09:04:33.239Z,7012
2016-11-10T09:05:45.735Z,5684
2016-11-10T09:06:58.197Z,14280
2016-11-10T09:08:11.699Z,10912
2016-11-10T09:09:25.433Z,10904
2016-11-10T09:10:38.497Z,12316
2016-11-10T09:11:51.512Z,18316
2016-11-10T09:13:03.992Z,7456
2016-11-10T09:14:16.508Z,16688
2016-11-10T09:15:30.038Z,12880
2016-11-10T09:16:43.215Z,9092
2016-11-10T09:17:56.222Z,9056
2016-11-10T09:19:09.824Z,8992
2016-11-10T09:20:23.496Z,9308
2016-11-10T09:21:36.611Z,2828
2016-11-10T09:22:49.198Z,9132
2016-11-10T09:24:08.389Z,9176
2016-11-10T09:25:35.350Z,9444
2016-11-10T09:26:57.066Z,9564
2016-11-10T09:28:13.081Z,10100
2016-11-10T09:29:26.191Z,9812
2016-11-10T09:30:38.230Z,9888
2016-11-10T09:31:51.085Z,10164
2016-11-10T09:33:03.822Z,10820
2016-11-10T09:34:16.312Z,11712
2016-11-10T09:35:28.309Z,13824
2016-11-10T09:36:41.422Z,13644
2016-11-10T09:37:53.961Z,14040
2016-11-10T09:39:07.088Z,14044
2016-11-10T09:40:20.116Z,14664
2016-11-10T09:41:33.248Z,15436
2016-11-10T09:42:46.280Z,15248
2016-11-10T09:43:58.807Z,15388
2016-11-10T09:45:10.760Z,16228
2016-11-10T09:46:22.187Z,16312
2016-11-10T09:47:35.353Z,16012
2016-11-10T09:48:48.425Z,15892
2016-11-10T09:50:01.376Z,15980
2016-11-10T09:51:14.407Z,15520
2016-11-10T09:52:26.884Z,15780
2016-11-10T09:53:39.403Z,16444
2016-11-10T09:54:52.531Z,16332
2016-11-10T09:56:06.470Z,17064
2016-11-10T09:57:19.348Z,17280
2016-11-10T09:58:31.865Z,17204
2016-11-10T09:59:44.388Z,16528
2016-11-10T10:00:57.390Z,17036
2016-11-10T10:02:23.942Z,17416
2016-11-10T10:03:36.902Z,17536
2016-11-10T10:04:49.370Z,18368
2016-11-10T10:06:01.831Z,18432
2016-11-10T10:07:14.836Z,18528
2016-11-10T10:08:27.804Z,19040
2016-11-10T10:09:40.339Z,19296
2016-11-10T10:10:53.333Z,19488
2016-11-10T10:12:06.395Z,19232
2016-11-10T10:13:19.533Z,19424
2016-11-10T10:14:32.660Z,19264
2016-11-10T10:15:45.726Z,19488
2016-11-10T10:16:57.804Z,19936
2016-11-10T10:18:10.838Z,19968
2016-11-10T10:19:22.961Z,19584
2016-11-10T10:21:06.703Z,19680
2016-11-10T10:22:20.516Z,19808
2016-11-10T10:23:35.463Z,19776
2016-11-10T10:25:19.680Z,19456
2016-11-10T10:26:32.692Z,17220
2016-11-10T10:27:45.718Z,14668
2016-11-10T10:28:58.352Z,13188
2016-11-10T10:30:09.838Z,12784
2016-11-10T10:31:23.327Z,12960
2016-11-10T10:32:36.841Z,12904
2016-11-10T10:33:49.331Z,13180
2016-11-10T10:35:02.538Z,13040
2016-11-10T10:36:15.091Z,12972
2016-11-10T10:37:27.027Z,13048
2016-11-10T10:38:40.616Z,13072
2016-11-10T10:39:54.490Z,13184
2016-11-10T10:41:06.452Z,13224
2016-11-10T10:42:20.268Z,13072
2016-11-10T10:43:34.065Z,13628
2016-11-10T10:44:47.037Z,13668
2016-11-10T10:45:59.482Z,13524
2016-11-10T10:47:11.994Z,13276
2016-11-10T10:48:24.504Z,13200
2016-11-10T10:49:37.549Z,13244
2016-11-10T10:50:50.680Z,13280
2016-11-10T10:52:04.198Z,13348
2016-11-10T10:53:17.701Z,13460
2016-11-10T10:54:31.250Z,13516
2016-11-10T10:55:44.202Z,13444
2016-11-10T10:56:57.853Z,13692
2016-11-10T10:58:10.483Z,13204
2016-11-10T10:59:23.491Z,14144
2016-11-10T11:00:34.865Z,13440
2016-11-10T11:01:47.012Z,14260
2016-11-10T11:02:59.053Z,14476
2016-11-10T11:04:11.004Z,14560
2016-11-10T11:05:24.571Z,17096
2016-11-10T11:06:37.585Z,17568
2016-11-10T11:07:49.644Z,19424
2016-11-10T11:09:02.615Z,14144
2016-11-10T11:10:14.576Z,58688
2016-11-10T11:11:27.624Z,45280
2016-11-10T11:12:40.768Z,70240
2016-11-10T11:13:52.710Z,71264
2016-11-10T11:15:05.206Z,72128
2016-11-10T11:16:49.836Z,61984
2016-11-10T11:18:03.021Z,48704
2016-11-10T11:19:16.027Z,33312
2016-11-10T11:20:29.610Z,47360
2016-11-10T11:21:43.203Z,41056
2016-11-10T11:22:55.813Z,36704
2016-11-10T11:24:08.421Z,45088
2016-11-10T11:25:21.457Z,41088
2016-11-10T11:26:34.926Z,43968
2016-11-10T11:27:47.977Z,50784
2016-11-10T11:29:01.672Z,47200
2016-11-10T11:30:15.147Z,35744
2016-11-10T11:31:27.872Z,36544
2016-11-10T11:32:40.889Z,39168
2016-11-10T11:33:53.674Z,38080
2016-11-10T11:35:06.752Z,37792
2016-11-10T11:36:19.271Z,34688
2016-11-10T11:37:31.963Z,36992
2016-11-10T11:38:44.470Z,34272
2016-11-10T11:39:56.587Z,39072
2016-11-10T11:41:09.096Z,19712
2016-11-10T11:42:22.658Z,15232
2016-11-10T11:43:36.286Z,19104
2016-11-10T11:44:49.881Z,21440
2016-11-10T11:46:03.594Z,22816
2016-11-10T11:47:15.059Z,39424
2016-11-10T11:48:28.212Z,22560
2016-11-10T11:49:41.374Z,27040
2016-11-10T11:50:55.108Z,26528
2016-11-10T11:52:07.726Z,27200
2016-11-10T11:53:20.733Z,28192
2016-11-10T11:54:32.112Z,26144
2016-11-10T11:55:43.481Z,25728
2016-11-10T11:56:56.642Z,25920
2016-11-10T11:58:08.574Z,26144
2016-11-10T11:59:21.080Z,26592
2016-11-10T12:00:33.072Z,26016
2016-11-10T12:01:46.192Z,19296
2016-11-10T12:03:00.913Z,26144
2016-11-10T12:04:13.452Z,25312
2016-11-10T12:05:26.968Z,25728
2016-11-10T12:06:40.789Z,25984
2016-11-10T12:07:54.425Z,25632
2016-11-10T12:09:06.917Z,25280
2016-11-10T12:10:20.240Z,25184
2016-11-10T12:11:33.105Z,25024
2016-11-10T12:12:46.283Z,25312
2016-11-10T12:13:59.619Z,25600
2016-11-10T12:15:13.360Z,25728
2016-11-10T12:16:26.598Z,25184
2016-11-10T12:17:39.972Z,25472
2016-11-10T12:18:52.574Z,25824
2016-11-10T12:20:05.138Z,26912
2016-11-10T12:21:21.835Z,26752
2016-11-10T12:22:36.979Z,26688
2016-11-10T12:23:50.811Z,26208
2016-11-10T12:25:05.380Z,25504
2016-11-10T12:26:23.452Z,25248
2016-11-10T12:27:35.476Z,26144
2016-11-10T12:28:48.884Z,26368
2016-11-10T12:30:01.437Z,26208
2016-11-10T12:31:15.228Z,25536
2016-11-10T12:32:27.858Z,25408
2016-11-10T12:33:39.856Z,25312
2016-11-10T12:34:52.483Z,26080
2016-11-10T12:36:05.596Z,26144
2016-11-10T12:37:17.635Z,26336
2016-11-10T12:38:31.258Z,26752
2016-11-10T12:39:44.664Z,26304
2016-11-10T12:40:56.651Z,25984
2016-11-10T12:42:09.679Z,25920
2016-11-10T12:43:22.296Z,26144
2016-11-10T12:44:34.317Z,25920
2016-11-10T12:45:48.044Z,25760
2016-11-10T12:47:00.663Z,25056
2016-11-10T12:48:12.724Z,25152
2016-11-10T12:49:25.309Z,25280
2016-11-10T12:50:38.548Z,24832
2016-11-10T12:51:52.213Z,24544
2016-11-10T12:53:09.332Z,24832
2016-11-10T12:54:24.842Z,21696
2016-11-10T12:55:38.513Z,24768
2016-11-10T12:56:49.999Z,25056
2016-11-10T12:58:05.247Z,25664
2016-11-10T12:59:19.715Z,25824
2016-11-10T13:00:35.963Z,26560
2016-11-10T13:01:53.960Z,25792
2016-11-10T13:03:14.097Z,25280
2016-11-10T13:04:31.006Z,25440
2016-11-10T13:05:43.680Z,25024
2016-11-10T13:07:00.935Z,23776
2016-11-10T13:08:19.753Z,12924
2016-11-10T13:09:34.036Z,25504
2016-11-10T13:10:46.091Z,14520
2016-11-10T13:12:03.316Z,14888
2016-11-10T13:13:21.622Z,16356
2016-11-10T13:14:36.131Z,20800
2016-11-10T13:15:49.512Z,25344
2016-11-10T13:17:02.548Z,26688
2016-11-10T13:18:16.329Z,14784
2016-11-10T13:19:35.003Z,27776
2016-11-10T13:20:58.360Z,15524
2016-11-10T13:22:12.754Z,17116
2016-11-10T13:23:26.232Z,27776
2016-11-10T13:24:38.901Z,28736
2016-11-10T13:25:52.561Z,36512
2016-11-10T13:27:10.142Z,30304
2016-11-10T13:28:23.246Z,29920
2016-11-10T13:29:37.107Z,28288
2016-11-10T13:30:50.885Z,25984
2016-11-10T13:32:02.356Z,23328
2016-11-10T13:33:14.340Z,29408
2016-11-10T13:34:27.492Z,25440
2016-11-10T13:35:41.081Z,29504
2016-11-10T13:36:54.205Z,26944
2016-11-10T13:38:07.901Z,28480
2016-11-10T13:39:20.554Z,22688
2016-11-10T13:40:33.845Z,21280
2016-11-10T13:41:49.446Z,18848
2016-11-10T13:43:04.769Z,19776
2016-11-10T13:44:17.923Z,22432
2016-11-10T13:45:30.593Z,22400
2016-11-10T13:46:44.254Z,21728
2016-11-10T13:47:56.236Z,24320
2016-11-10T13:49:09.313Z,25984
2016-11-10T13:50:22.858Z,25856
2016-11-10T13:51:35.819Z,25248
2016-11-10T13:52:48.795Z,27136
2016-11-10T13:54:02.404Z,19328
2016-11-10T13:55:15.639Z,18624
2016-11-10T13:56:28.361Z,20352
2016-11-10T13:57:42.120Z,28512
2016-11-10T13:58:55.918Z,21824
2016-11-10T14:00:08.432Z,28320
2016-11-10T14:01:21.924Z,20416
2016-11-10T14:02:34.939Z,19072
2016-11-10T14:03:48.860Z,15804
2016-11-10T14:05:02.420Z,13880
2016-11-10T14:06:16.032Z,14180
2016-11-10T14:07:31.258Z,14848
2016-11-10T14:08:44.396Z,21952
2016-11-10T14:09:56.927Z,21632
2016-11-10T14:11:09.489Z,22080
2016-11-10T14:12:23.089Z,21856
2016-11-10T14:13:35.633Z,21440
2016-11-10T14:14:47.093Z,21184
2016-11-10T14:16:00.099Z,21344
2016-11-10T14:17:13.741Z,20864
2016-11-10T14:18:26.778Z,20032
2016-11-10T14:19:37.856Z,23360
2016-11-10T14:20:50.428Z,19072
2016-11-10T14:22:03.453Z,17628
2016-11-10T14:23:16.614Z,24512
2016-11-10T14:24:28.872Z,23520
2016-11-10T14:25:41.354Z,23104
2016-11-10T14:26:53.461Z,21632
2016-11-10T14:28:05.537Z,21312
2016-11-10T14:29:19.016Z,21408
2016-11-10T14:30:32.129Z,21760
2016-11-10T14:31:45.707Z,23136
2016-11-10T14:32:58.762Z,17740
2016-11-10T14:34:11.009Z,24192
2016-11-10T14:35:22.509Z,23296
2016-11-10T14:36:34.996Z,26656
2016-11-10T14:37:48.571Z,27776
2016-11-10T14:39:00.043Z,26624
2016-11-10T14:40:13.114Z,27008
2016-11-10T14:41:26.554Z,15860
2016-11-10T14:42:41.011Z,21376
2016-11-10T14:43:54.033Z,26720
2016-11-10T14:45:07.076Z,27520
2016-11-10T14:46:20.656Z,19520
2016-11-10T14:47:34.240Z,31232
2016-11-10T14:48:47.838Z,31168
2016-11-10T14:50:00.836Z,32928
2016-11-10T14:51:14.466Z,33824
2016-11-10T14:52:28.189Z,36224
2016-11-10T14:53:41.317Z,23936
2016-11-10T14:54:54.405Z,24864
2016-11-10T14:56:07.463Z,21088
2016-11-10T14:57:20.652Z,33024
2016-11-10T14:58:34.176Z,34240
2016-11-10T14:59:47.713Z,19904
2016-11-10T15:01:00.774Z,37504
2016-11-10T15:02:14.658Z,34112
2016-11-10T15:03:27.211Z,38848
2016-11-10T15:04:39.788Z,40416
2016-11-10T15:05:52.201Z,37728
2016-11-10T15:07:05.263Z,28928
2016-11-10T15:08:18.652Z,36608
2016-11-10T15:09:31.434Z,27840
2016-11-10T15:10:44.977Z,37376
2016-11-10T15:11:57.519Z,39680
2016-11-10T15:13:10.739Z,37824
2016-11-10T15:14:24.476Z,35808
2016-11-10T15:15:37.567Z,35616
2016-11-10T15:16:51.081Z,37920
2016-11-10T15:18:04.667Z,40448
2016-11-10T15:19:17.895Z,40608
2016-11-10T15:20:31.436Z,23680
2016-11-10T15:21:44.454Z,24544
2016-11-10T15:22:57.001Z,28128
2016-11-10T15:24:10.534Z,25984
2016-11-10T15:25:23.817Z,45792
2016-11-10T15:26:36.866Z,34336
2016-11-10T15:27:48.871Z,43936
2016-11-10T15:29:33.037Z,34176
2016-11-10T15:30:46.588Z,46144
2016-11-10T15:31:59.185Z,47136
2016-11-10T15:33:11.670Z,34624
2016-11-10T15:34:24.633Z,24512
2016-11-10T15:35:38.220Z,35616
2016-11-10T15:36:51.272Z,24224
2016-11-10T15:38:04.829Z,42624
2016-11-10T15:39:17.387Z,43552
2016-11-10T15:40:31.046Z,45472
2016-11-10T15:41:44.551Z,48160
2016-11-10T15:42:57.713Z,47232
2016-11-10T15:44:10.794Z,48960
2016-11-10T15:45:23.818Z,47424
2016-11-10T15:46:36.313Z,48320
2016-11-10T15:47:48.835Z,48416
2016-11-10T15:49:32.448Z,49216
2016-11-10T15:50:45.126Z,43040
2016-11-10T15:51:57.861Z,50880
2016-11-10T15:53:10.900Z,23072
2016-11-10T15:54:24.592Z,24288
2016-11-10T15:55:37.577Z,53088
2016-11-10T15:56:51.137Z,52480
2016-11-10T15:58:04.096Z,19360
2016-11-10T15:59:17.049Z,53696
2016-11-10T16:00:29.602Z,20224
2016-11-10T16:01:42.296Z,56928
2016-11-10T16:02:55.324Z,54432
2016-11-10T16:04:08.351Z,56448
2016-11-10T16:05:20.884Z,59168
2016-11-10T16:06:34.090Z,56896
2016-11-10T16:07:46.550Z,39808
2016-11-10T16:09:00.141Z,31712
2016-11-10T16:10:13.163Z,58080
2016-11-10T16:11:25.748Z,56768
2016-11-10T16:12:39.410Z,51072
2016-11-10T16:13:52.450Z,56160
2016-11-10T16:15:06.096Z,20544
2016-11-10T16:16:19.141Z,21600
2016-11-10T16:17:32.648Z,23168
2016-11-10T16:18:46.364Z,24608
2016-11-10T16:19:59.403Z,54912
2016-11-10T16:21:12.519Z,24992
2016-11-10T16:22:25.577Z,28064
2016-11-10T16:24:10.354Z,22528
2016-11-10T16:25:23.371Z,24416
2016-11-10T16:26:36.923Z,26400
2016-11-10T16:27:50.513Z,50976
2016-11-10T16:29:03.643Z,27840
2016-11-10T16:30:17.127Z,28800
2016-11-10T16:31:30.182Z,50336
2016-11-10T16:32:43.325Z,29856
2016-11-10T16:33:55.288Z,49376
2016-11-10T16:35:08.301Z,48416
2016-11-10T16:36:21.366Z,31904
2016-11-10T16:37:33.323Z,21984
2016-11-10T16:38:46.914Z,22144
2016-11-10T16:40:00.531Z,22592
2016-11-10T16:41:14.101Z,54464
2016-11-10T16:42:27.046Z,58912
2016-11-10T16:43:40.697Z,63328
2016-11-10T16:44:53.755Z,61184
2016-11-10T16:46:07.306Z,63904
2016-11-10T16:47:20.352Z,26592
2016-11-10T16:48:33.882Z,45536
2016-11-10T16:49:47.284Z,61600
2016-11-10T16:50:59.835Z,66848
